Página principal
METAR-TAF:

METAR-TAF

Aeroportos :

Aeroporto Internacional Yoff-Léopold Sédar Senghor

Dakar, Senegal

latitude: 14-44N, longitude: 017-30W, altura: 27 m

Observação actual do tempo

O boletim foi feito há 2 horas e 54 minutos, às 01:00 UTC
Vento 6 kt de oes-noroeste, variando entre oeste e noroeste
Temperatura 26°C
Humidade 79%
Pressão 1011 hPa
Visibilidade 10 km ou mais
sem nuvens abaixo de 1500 metros e sem cumulonimbus

METAR: GOOY 230100Z 30006KT 260V320 CAVOK 26/22 Q1011

Hora: 03:54 (03:54 UTC)

Previsão

O boletim foi feito há 4 horas e 54 minutos, às 23:00 UTC
Previsão válida de 23 às 00 UTC a 24 às 06 UTC
Vento 6 kt de oes-noroeste
Visibilidade 10 km ou mais
Nuvens dispersasa uma altura de 1300 ft
Probabilidade 40% :
Temporariamente
de 23 às 03 UTC a 23 às 09 UTC
Nuvens fragmentadasa uma altura de 1000 ft

TAF: GOOY 222300Z 2300/2406 30006KT 9999 SCT013 PROB40 TEMPO 2303/2309 BKN010

Observações e previsões do tempo de mais de 4000 aeroportos (mensagens METAR e TAF).

As estações disponíveis são os pontos amarelos e vermelhos sobre o mapa.

Mova o rato sobre o mapa para ver o nome da estação.

Depois clique no ponto para visualizar as observações e previsões meteorológicas.

Para alterar o mapa : clique nos botões verdes com uma cruz preta para aumentar o zoom; no botão verde com uma pitada de zoom; ou nas setas verdes para mapas adjacentes.


METAR-TAF: